Aeroporto :
LOGIN :

Iscrizione | Disclaimer

   EN    FR    IT 

 










Sommario :    VFR   VFR Marginale   IFR   IFR Intensivo   IFR Molto Intensivo
Visibilità : 
Base nubi : 
>= 8 km
>= 3000ft
5 / 8 km
1000 / 3000 ft
1500m / 5 km
500 / 1000 ft
800 / 1500m
200 / 500 ft
< 800m
< 200 ft
Simboli :   Temporali  Nebbia  Neve Forte  Precipitazioni Forti  Vento > 20 kt
SIGMETs :   Varie  Temporali  Ghiacco  Turbolenza  Onda orograficha  Ceneri Vulcaniche






- Altitudine del aeroporto : 1084 ft
- Codice IATA : EPL


LFSG - Épinal-Mirecourt

ULTIMO METAR :
  • 021400Z AUTO 25013KT 9999 -RA FEW012 BKN017 BKN023 06/05 Q1030

METARs OBSOLETI :
  • 021330Z AUTO 27014KT 9999 FEW016 SCT021 BKN027 06/04 Q1030
  • 021300Z AUTO 26008KT 9999 SCT018 SCT029 OVC040 07/04 Q1030
  • 021230Z AUTO 26011KT 9999 FEW013 BKN021 OVC038 06/04 Q1030
  • 021200Z AUTO 24011KT 9999 FEW014 BKN020 BKN026 06/04 Q1030
  • 021130Z AUTO 24011KT 9999 BKN020 OVC026 06/04 Q1030

TAF N/A



MetMap, La meteo Aeronautica in un colpo d'occhio ! - Copyright ORBIFLY Dicembre 2007 - Disclaimer

ORBIFLY MET'MAP TEAM :

Programmazione e sviluppo : Alexandra Zaïnal
Concezione : Baudouin d'Aumeries
Supporto tecnico e logistico : Manuel Goepfert
Aiuto : Marc-Olivier Méhu
Aiuto per la traduzione : Arnaldo La Scala




FONTI E CREDITI :

   NOAA